Time;durP1;ratioP1;P1;durP2;ratioP2;P2;SDS_P1;SDS_P2;PMS_P1;PMS_P2;Temp;Humidity;BMP_temperature;BMP_pressure;BME280_temperature;BME280_humidity;BME280_pressure;Samples;Min_cycle;Max_cycle;Signal;HPM_P1;HPM_P2
2021/05/07 00:01:52;;;;;;;5.70;2.77;;;7.10;99.90;;;;;;4157974;28;20478;-76
2021/05/07 00:03:54;;;;;;;3.50;2.50;;;7.10;99.90;;;;;;4154075;28;20471;-75
2021/05/07 00:05:56;;;;;;;5.07;2.87;;;7.00;99.90;;;;;;4157090;28;20543;-75
2021/05/07 00:07:57;;;;;;;4.70;2.67;;;7.00;99.90;;;;;;4171539;28;20495;-76
2021/05/07 00:09:58;;;;;;;5.80;2.87;;;7.00;99.90;;;;;;4154969;28;20971;-75
2021/05/07 00:11:59;;;;;;;4.53;2.53;;;7.00;99.90;;;;;;4158429;28;20472;-76
2021/05/07 00:14:02;;;;;;;3.40;2.60;;;7.00;99.90;;;;;;4145781;28;20465;-76
2021/05/07 00:16:04;;;;;;;5.83;2.70;;;7.00;99.90;;;;;;4157134;28;20464;-75
2021/05/07 00:18:05;;;;;;;3.07;2.27;;;6.90;99.90;;;;;;4155968;28;20482;-76
2021/05/07 00:20:08;;;;;;;5.00;2.30;;;6.90;99.90;;;;;;4160244;28;20563;-76
2021/05/07 00:22:09;;;;;;;4.30;2.70;;;6.90;99.90;;;;;;4150220;28;20645;-76
2021/05/07 00:24:11;;;;;;;3.87;2.50;;;6.90;99.90;;;;;;4145847;28;20451;-75
2021/05/07 00:26:12;;;;;;;3.23;2.43;;;6.90;99.90;;;;;;4145825;28;20480;-76
2021/05/07 00:28:16;;;;;;;6.10;2.90;;;6.90;99.90;;;;;;4147283;28;20478;-77
2021/05/07 00:30:18;;;;;;;5.80;2.90;;;6.90;99.90;;;;;;4146503;28;20489;-76
2021/05/07 00:32:20;;;;;;;4.53;2.47;;;6.90;99.90;;;;;;4147922;28;20457;-76
2021/05/07 00:34:21;;;;;;;4.17;2.63;;;6.80;99.90;;;;;;4147599;28;20468;-75
2021/05/07 00:36:22;;;;;;;3.23;2.20;;;6.80;99.90;;;;;;4156938;28;20483;-76
2021/05/07 00:38:23;;;;;;;4.10;2.40;;;6.80;99.90;;;;;;4159888;28;20482;-76
2021/05/07 00:40:25;;;;;;;5.87;2.50;;;6.80;99.90;;;;;;4155721;28;20501;-76
2021/05/07 00:42:26;;;;;;;6.40;2.90;;;6.80;99.90;;;;;;4146360;28;20474;-76
2021/05/07 00:44:27;;;;;;;3.17;2.43;;;6.70;99.90;;;;;;4146279;28;20529;-75
2021/05/07 00:46:28;;;;;;;2.93;2.17;;;6.70;99.90;;;;;;4145603;28;20959;-76
2021/05/07 00:48:31;;;;;;;5.27;2.90;;;6.70;99.90;;;;;;4152907;28;20481;-75
2021/05/07 00:50:34;;;;;;;5.10;2.70;;;6.70;99.90;;;;;;4160790;28;20918;-76
2021/05/07 00:52:37;;;;;;;4.03;2.53;;;6.60;99.90;;;;;;4152730;28;20568;-75
2021/05/07 00:54:38;;;;;;;6.27;2.67;;;6.70;99.90;;;;;;4153677;28;20534;-75
2021/05/07 00:56:40;;;;;;;5.33;2.50;;;6.70;99.90;;;;;;4161443;28;20457;-75
2021/05/07 00:58:41;;;;;;;5.40;2.83;;;6.60;99.90;;;;;;4159495;28;20491;-75
2021/05/07 01:00:42;;;;;;;4.13;2.53;;;6.60;99.90;;;;;;4156025;28;20629;-76
2021/05/07 01:02:43;;;;;;;3.83;2.40;;;6.60;99.90;;;;;;4157977;28;20462;-76
2021/05/07 01:04:45;;;;;;;3.70;2.33;;;6.60;99.90;;;;;;4161971;28;20463;-76
2021/05/07 01:06:47;;;;;;;4.53;2.40;;;6.60;99.90;;;;;;4158913;28;20483;-76
2021/05/07 01:08:48;;;;;;;3.80;2.47;;;6.50;99.90;;;;;;4158213;28;20455;-75
2021/05/07 01:10:49;;;;;;;4.00;2.33;;;6.50;99.90;;;;;;4157898;28;21004;-76
2021/05/07 01:12:51;;;;;;;3.40;2.50;;;6.50;99.90;;;;;;4147093;28;20461;-76
2021/05/07 01:15:05;;;;;;;7.13;2.50;;;6.50;99.90;;;;;;4163057;28;20511;-76
2021/05/07 01:17:07;;;;;;;3.33;2.30;;;6.50;99.90;;;;;;4163197;28;20460;-75
2021/05/07 01:19:13;;;;;;;4.10;2.50;;;6.50;99.90;;;;;;4161631;28;20496;-75
2021/05/07 01:21:15;;;;;;;3.37;2.10;;;6.50;99.90;;;;;;4165146;28;20901;-76
2021/05/07 01:23:17;;;;;;;4.20;2.37;;;6.50;99.90;;;;;;4161431;28;20476;-75
2021/05/07 01:25:20;;;;;;;4.87;2.30;;;6.50;99.90;;;;;;4161790;28;20453;-75
2021/05/07 01:27:21;;;;;;;4.37;2.87;;;6.50;99.90;;;;;;4160273;28;20475;-76
2021/05/07 01:29:22;;;;;;;5.47;2.70;;;6.50;99.90;;;;;;4163406;28;20977;-76
2021/05/07 01:31:23;;;;;;;4.47;2.70;;;6.60;99.90;;;;;;4154996;28;20469;-76
2021/05/07 01:33:24;;;;;;;4.67;2.77;;;6.60;99.90;;;;;;4155571;28;20791;-75
2021/05/07 01:35:27;;;;;;;4.73;2.70;;;6.50;99.90;;;;;;4158633;28;20468;-76
2021/05/07 01:37:29;;;;;;;5.73;2.77;;;6.50;99.90;;;;;;4160913;28;20470;-76
2021/05/07 01:39:30;;;;;;;5.23;3.00;;;6.50;99.90;;;;;;4153213;28;20491;-74
2021/05/07 01:41:31;;;;;;;5.00;3.20;;;6.50;99.90;;;;;;4161778;28;20487;-75
2021/05/07 01:43:33;;;;;;;5.17;3.00;;;6.50;99.90;;;;;;4156776;28;20473;-75
2021/05/07 01:45:36;;;;;;;4.17;2.50;;;6.50;99.90;;;;;;4164522;28;20989;-74
2021/05/07 01:47:37;;;;;;;6.97;3.23;;;6.50;99.90;;;;;;4151904;28;20480;-75
2021/05/07 01:49:38;;;;;;;4.97;2.90;;;6.50;99.90;;;;;;4148051;28;20452;-74
2021/05/07 01:51:40;;;;;;;5.87;3.00;;;6.50;99.90;;;;;;4156452;28;20506;-75
2021/05/07 01:53:42;;;;;;;4.90;2.90;;;6.50;99.90;;;;;;4162887;28;20532;-74
2021/05/07 01:55:45;;;;;;;4.30;2.60;;;6.50;99.90;;;;;;4149423;28;20480;-75
2021/05/07 01:57:47;;;;;;;7.70;3.33;;;6.50;99.90;;;;;;4148054;28;20525;-75
2021/05/07 01:59:48;;;;;;;5.37;3.30;;;6.50;99.90;;;;;;4159901;28;20545;-75
2021/05/07 02:01:50;;;;;;;4.77;2.90;;;6.50;99.90;;;;;;4163382;28;20469;-75
2021/05/07 02:03:51;;;;;;;6.47;3.10;;;6.50;99.90;;;;;;4148545;28;21656;-75
2021/05/07 02:05:52;;;;;;;5.57;3.27;;;6.50;99.90;;;;;;4148376;28;20490;-75
2021/05/07 02:07:54;;;;;;;5.43;3.40;;;6.50;99.90;;;;;;4152659;28;20547;-75
2021/05/07 02:09:56;;;;;;;6.97;3.40;;;6.50;99.90;;;;;;4168635;28;20832;-75
2021/05/07 02:11:57;;;;;;;6.60;3.70;;;6.50;99.90;;;;;;4166326;28;20526;-75
2021/05/07 02:13:58;;;;;;;7.57;4.20;;;6.50;99.90;;;;;;4169614;28;20970;-75
2021/05/07 02:16:00;;;;;;;9.20;4.40;;;6.50;99.90;;;;;;4162556;28;20474;-75
2021/05/07 02:18:01;;;;;;;7.27;4.30;;;6.50;99.90;;;;;;4158684;28;20476;-76
2021/05/07 02:20:03;;;;;;;8.00;5.03;;;6.50;99.90;;;;;;4154002;28;20487;-76
2021/05/07 02:22:04;;;;;;;9.97;5.03;;;6.50;99.90;;;;;;4170828;28;20546;-75
2021/05/07 02:24:06;;;;;;;8.23;5.07;;;6.40;99.90;;;;;;4162700;28;20910;-75
2021/05/07 02:26:09;;;;;;;10.43;6.03;;;6.40;99.90;;;;;;4162158;28;20970;-74
2021/05/07 02:28:10;;;;;;;12.57;6.07;;;6.50;99.90;;;;;;4156646;28;20473;-75
2021/05/07 02:30:13;;;;;;;9.63;5.87;;;6.50;99.90;;;;;;4165695;28;20482;-75
2021/05/07 02:32:15;;;;;;;9.87;5.23;;;6.50;99.90;;;;;;4152048;28;20543;-74
2021/05/07 02:34:16;;;;;;;8.93;6.00;;;6.40;99.90;;;;;;4148946;28;20497;-75
2021/05/07 02:36:17;;;;;;;11.63;5.30;;;6.40;99.90;;;;;;4162124;28;20469;-76
2021/05/07 02:38:19;;;;;;;9.37;5.10;;;6.40;99.90;;;;;;4163457;28;20528;-76
2021/05/07 02:40:20;;;;;;;7.03;4.53;;;6.40;99.90;;;;;;4156315;28;20494;-75
2021/05/07 02:42:22;;;;;;;8.13;5.17;;;6.40;99.90;;;;;;4147340;28;20993;-75
2021/05/07 02:44:23;;;;;;;7.70;4.83;;;6.40;99.90;;;;;;4155272;28;20489;-75
2021/05/07 02:46:24;;;;;;;9.30;5.00;;;6.40;99.90;;;;;;4148595;28;20468;-74
2021/05/07 02:48:26;;;;;;;8.37;4.80;;;6.40;99.90;;;;;;4150237;28;20480;-75
2021/05/07 02:50:27;;;;;;;8.13;5.10;;;6.40;99.90;;;;;;4163220;28;20487;-75
2021/05/07 02:52:28;;;;;;;8.23;4.90;;;6.40;99.90;;;;;;4162797;28;20472;-75
2021/05/07 02:54:29;;;;;;;8.60;4.90;;;6.50;99.90;;;;;;4154282;28;20475;-75
2021/05/07 02:56:30;;;;;;;8.83;5.10;;;6.40;99.90;;;;;;4161382;28;20473;-75
2021/05/07 02:58:32;;;;;;;8.17;4.87;;;6.40;99.90;;;;;;4159706;28;20470;-76
2021/05/07 03:00:34;;;;;;;8.40;5.27;;;6.40;99.90;;;;;;4151755;28;20492;-75
2021/05/07 03:02:35;;;;;;;8.97;5.43;;;6.40;99.90;;;;;;4159289;28;20467;-76
2021/05/07 03:04:37;;;;;;;8.43;5.00;;;6.40;99.90;;;;;;4160510;28;20471;-75
2021/05/07 03:06:38;;;;;;;9.90;5.40;;;6.40;99.90;;;;;;4154144;28;20835;-75
2021/05/07 03:08:39;;;;;;;9.43;5.93;;;6.40;99.90;;;;;;4165876;28;20479;-75
2021/05/07 03:10:40;;;;;;;8.70;5.47;;;6.40;99.90;;;;;;4162886;28;20991;-76
2021/05/07 03:12:42;;;;;;;9.80;5.67;;;6.40;99.90;;;;;;4156118;28;20957;-75
2021/05/07 03:14:44;;;;;;;11.23;5.87;;;6.40;99.90;;;;;;4149045;28;20839;-75
2021/05/07 03:16:45;;;;;;;10.83;5.63;;;6.30;99.90;;;;;;4158749;28;21000;-75
2021/05/07 03:18:46;;;;;;;12.30;5.93;;;6.30;99.90;;;;;;4158894;28;20914;-76
2021/05/07 03:20:49;;;;;;;9.57;6.27;;;6.30;99.90;;;;;;4153041;28;20868;-76
2021/05/07 03:22:50;;;;;;;9.47;5.90;;;6.30;99.90;;;;;;4163634;28;20973;-75
2021/05/07 03:24:51;;;;;;;10.47;6.40;;;6.30;99.90;;;;;;4154390;28;20479;-74
2021/05/07 03:26:52;;;;;;;11.93;6.37;;;6.20;99.90;;;;;;4152750;28;20530;-74
2021/05/07 03:28:53;;;;;;;10.40;6.07;;;6.20;99.90;;;;;;4160944;28;20480;-74
2021/05/07 03:30:55;;;;;;;14.00;6.70;;;6.20;99.90;;;;;;4161431;28;20481;-75
2021/05/07 03:32:56;;;;;;;11.70;6.93;;;6.10;99.90;;;;;;4154550;28;20473;-74
2021/05/07 03:34:58;;;;;;;11.23;6.57;;;6.10;99.90;;;;;;4154544;28;20490;-73
2021/05/07 03:36:59;;;;;;;10.23;6.40;;;6.10;99.90;;;;;;4159705;28;20472;-74
2021/05/07 03:39:00;;;;;;;11.93;7.03;;;6.10;99.90;;;;;;4150719;28;20477;-74
2021/05/07 03:41:01;;;;;;;12.80;7.77;;;6.00;99.90;;;;;;4161516;28;20500;-73
2021/05/07 03:43:02;;;;;;;12.13;7.10;;;6.00;99.90;;;;;;4153056;28;20479;-74
2021/05/07 03:45:04;;;;;;;12.43;7.30;;;6.10;99.90;;;;;;4146806;28;20483;-75
2021/05/07 03:47:07;;;;;;;14.67;8.30;;;6.00;99.90;;;;;;4146946;28;20458;-75
2021/05/07 03:49:08;;;;;;;12.23;7.07;;;6.00;99.90;;;;;;4163509;28;20458;-75
2021/05/07 03:51:09;;;;;;;14.77;8.27;;;6.00;99.90;;;;;;4161963;28;20499;-74
2021/05/07 03:53:10;;;;;;;13.37;7.43;;;6.00;99.90;;;;;;4162118;28;20475;-76
2021/05/07 03:55:13;;;;;;;19.07;9.27;;;6.00;99.90;;;;;;4152503;28;20465;-73
2021/05/07 03:57:15;;;;;;;12.27;7.63;;;6.10;99.90;;;;;;4150952;28;20463;-73
2021/05/07 03:59:17;;;;;;;18.57;9.80;;;6.10;99.90;;;;;;4151567;28;20471;-74
2021/05/07 04:01:18;;;;;;;17.27;9.23;;;6.10;99.90;;;;;;4153265;28;20672;-73
2021/05/07 04:03:20;;;;;;;18.37;9.93;;;6.10;99.90;;;;;;4161371;28;20498;-72
2021/05/07 04:05:22;;;;;;;17.27;9.70;;;6.10;99.90;;;;;;4164437;28;20481;-73
2021/05/07 04:07:23;;;;;;;14.90;9.23;;;6.00;99.90;;;;;;4153876;28;20850;-73
2021/05/07 04:09:30;;;;;;;14.83;9.17;;;6.00;99.90;;;;;;4153867;28;20481;-74
2021/05/07 04:11:35;;;;;;;20.77;10.20;;;6.00;99.90;;;;;;4151771;28;20491;-73
2021/05/07 04:13:39;;;;;;;13.40;8.37;;;5.90;99.90;;;;;;4152286;28;20467;-72
2021/05/07 04:15:40;;;;;;;16.80;9.43;;;5.90;99.90;;;;;;4145884;28;20971;-75
2021/05/07 04:17:42;;;;;;;14.03;8.70;;;5.90;99.90;;;;;;4145757;28;20538;-73
2021/05/07 04:19:44;;;;;;;17.03;9.83;;;5.90;99.90;;;;;;4157291;28;20494;-73
2021/05/07 04:21:45;;;;;;;17.00;9.73;;;6.00;99.90;;;;;;4166960;28;20528;-73
2021/05/07 04:23:46;;;;;;;16.17;9.37;;;6.00;99.90;;;;;;4158885;28;20478;-76
2021/05/07 04:25:48;;;;;;;20.47;9.93;;;6.00;99.90;;;;;;4152010;28;20848;-76
2021/05/07 04:27:49;;;;;;;15.50;8.93;;;6.00;99.90;;;;;;4155556;28;20466;-74
2021/05/07 04:29:50;;;;;;;19.73;9.80;;;6.00;99.90;;;;;;4152389;28;20462;-74
2021/05/07 04:31:52;;;;;;;17.97;10.03;;;6.00;99.90;;;;;;4162118;28;20490;-74
2021/05/07 04:33:53;;;;;;;14.13;8.03;;;6.00;99.90;;;;;;4147667;28;20557;-73
2021/05/07 04:35:55;;;;;;;14.00;9.17;;;6.00;99.90;;;;;;4155191;28;20494;-73
2021/05/07 04:37:56;;;;;;;18.23;8.57;;;6.00;99.90;;;;;;4158548;28;20450;-73
2021/05/07 04:39:58;;;;;;;19.53;8.97;;;6.00;99.90;;;;;;4160948;28;20477;-74
2021/05/07 04:41:59;;;;;;;16.30;9.23;;;6.00;99.90;;;;;;4154485;28;20470;-73
2021/05/07 04:44:00;;;;;;;15.67;9.50;;;6.00;99.90;;;;;;4161931;28;20473;-73
2021/05/07 04:46:01;;;;;;;15.37;8.83;;;6.00;99.90;;;;;;4159827;28;20523;-73
2021/05/07 04:48:11;;;;;;;18.40;10.53;;;6.00;99.90;;;;;;4161698;28;20471;-73
2021/05/07 04:50:14;;;;;;;17.90;8.93;;;6.00;99.90;;;;;;4155507;28;20507;-74
2021/05/07 04:52:16;;;;;;;15.90;8.30;;;6.00;99.90;;;;;;4161249;28;20464;-74
2021/05/07 04:54:17;;;;;;;15.33;8.33;;;6.00;99.90;;;;;;4164558;28;20970;-74
2021/05/07 04:56:18;;;;;;;13.37;7.37;;;5.90;99.90;;;;;;4158976;28;20470;-74
2021/05/07 04:58:19;;;;;;;14.37;7.37;;;5.90;99.90;;;;;;4161917;28;21032;-74
2021/05/07 05:00:21;;;;;;;11.07;5.97;;;5.80;99.90;;;;;;4157911;28;21000;-73
2021/05/07 05:02:23;;;;;;;8.30;5.17;;;5.80;99.90;;;;;;4165802;28;20553;-73
2021/05/07 05:04:24;;;;;;;8.50;4.70;;;5.70;99.90;;;;;;4153896;28;20481;-73
2021/05/07 05:06:25;;;;;;;5.47;3.87;;;5.70;99.90;;;;;;4162919;28;20859;-74
2021/05/07 05:08:28;;;;;;;6.63;3.77;;;5.60;99.90;;;;;;4159775;28;20469;-73
2021/05/07 05:10:30;;;;;;;4.80;3.20;;;5.50;99.90;;;;;;4163546;28;20488;-73
2021/05/07 05:12:31;;;;;;;5.07;3.40;;;5.50;99.90;;;;;;4160053;28;20497;-73
2021/05/07 05:14:32;;;;;;;5.33;3.30;;;5.50;99.90;;;;;;4158815;28;20477;-73
2021/05/07 05:16:33;;;;;;;4.47;2.90;;;5.40;99.90;;;;;;4165875;28;20485;-74
2021/05/07 05:18:38;;;;;;;3.43;2.30;;;5.40;99.90;;;;;;4148793;28;20481;-74
2021/05/07 05:20:39;;;;;;;4.23;2.60;;;5.40;99.90;;;;;;4158737;28;21260;-74
2021/05/07 05:22:40;;;;;;;5.13;2.40;;;5.40;99.90;;;;;;4163143;28;20481;-73
2021/05/07 05:24:42;;;;;;;3.47;2.27;;;5.40;99.90;;;;;;4164675;28;20458;-73
2021/05/07 05:26:44;;;;;;;6.77;2.30;;;5.30;99.90;;;;;;4165648;28;20438;-73
2021/05/07 05:28:45;;;;;;;3.63;2.40;;;5.30;99.90;;;;;;4163403;28;20473;-74
2021/05/07 05:30:46;;;;;;;2.33;1.80;;;5.20;99.90;;;;;;4158824;28;20889;-73
2021/05/07 05:32:48;;;;;;;3.30;1.90;;;5.20;99.90;;;;;;4148387;28;20470;-73
2021/05/07 05:34:49;;;;;;;2.30;1.90;;;5.20;99.90;;;;;;4148670;28;20880;-74
2021/05/07 05:36:50;;;;;;;3.20;1.93;;;5.20;99.90;;;;;;4159777;28;20951;-73
2021/05/07 05:38:51;;;;;;;2.67;1.90;;;5.20;99.90;;;;;;4161145;28;20928;-73
2021/05/07 05:40:53;;;;;;;4.63;2.00;;;5.30;99.90;;;;;;4153190;28;20494;-73
2021/05/07 05:42:55;;;;;;;4.03;2.20;;;5.40;99.90;;;;;;4162699;28;20465;-73
2021/05/07 05:44:56;;;;;;;3.77;2.23;;;5.40;99.90;;;;;;4159951;28;20809;-74
2021/05/07 05:46:57;;;;;;;3.13;2.07;;;5.40;99.90;;;;;;4148268;28;20486;-73
2021/05/07 05:48:58;;;;;;;2.90;1.70;;;5.60;99.90;;;;;;4148575;28;20524;-73
2021/05/07 05:51:00;;;;;;;4.33;2.10;;;5.60;99.90;;;;;;4155440;28;20477;-74
2021/05/07 05:53:01;;;;;;;3.33;2.07;;;5.70;99.90;;;;;;4157707;28;20458;-74
2021/05/07 05:55:03;;;;;;;2.77;2.20;;;5.70;99.90;;;;;;4159213;28;20523;-73
2021/05/07 05:57:07;;;;;;;3.40;2.17;;;5.90;99.90;;;;;;4156493;28;20500;-72
2021/05/07 05:59:08;;;;;;;3.97;2.40;;;6.00;99.90;;;;;;4165845;28;20481;-73
2021/05/07 06:01:09;;;;;;;3.53;2.20;;;6.10;99.90;;;;;;4164006;28;20494;-73
2021/05/07 06:03:10;;;;;;;2.80;2.10;;;6.10;99.90;;;;;;4164409;28;20477;-73
2021/05/07 06:05:13;;;;;;;2.50;1.83;;;6.10;99.90;;;;;;4158410;28;20480;-76
2021/05/07 06:07:15;;;;;;;6.00;2.50;;;6.20;99.90;;;;;;4157461;28;20470;-73
2021/05/07 06:09:16;;;;;;;3.27;2.10;;;6.10;99.90;;;;;;4161555;28;20472;-73
2021/05/07 06:11:17;;;;;;;2.83;2.20;;;6.10;99.90;;;;;;4155324;28;20474;-74
2021/05/07 06:13:19;;;;;;;2.70;1.90;;;6.20;99.90;;;;;;4158675;28;20456;-74
2021/05/07 06:15:21;;;;;;;4.47;2.17;;;6.20;99.90;;;;;;4156046;28;20488;-74
2021/05/07 06:17:22;;;;;;;3.20;2.10;;;6.20;99.90;;;;;;4165529;28;20447;-73
2021/05/07 06:19:23;;;;;;;3.03;2.27;;;6.20;99.90;;;;;;4163300;28;20469;-74
2021/05/07 06:21:25;;;;;;;3.37;2.40;;;6.30;99.90;;;;;;4158411;28;21018;-73
2021/05/07 06:23:26;;;;;;;3.83;2.47;;;6.50;99.90;;;;;;4160245;28;20509;-72
2021/05/07 06:25:27;;;;;;;2.93;2.13;;;6.50;99.90;;;;;;4158578;28;20517;-74
2021/05/07 06:27:28;;;;;;;5.50;2.90;;;6.50;99.90;;;;;;4158799;28;20533;-73
2021/05/07 06:29:30;;;;;;;5.93;3.13;;;6.60;99.90;;;;;;4149940;28;20845;-73
2021/05/07 06:31:32;;;;;;;5.00;3.37;;;6.60;99.90;;;;;;4162019;28;20489;-74
2021/05/07 06:33:33;;;;;;;6.97;4.30;;;6.60;99.90;;;;;;4164300;28;20594;-73
2021/05/07 06:35:34;;;;;;;6.60;4.23;;;6.80;99.90;;;;;;4153252;28;20522;-73
2021/05/07 06:37:35;;;;;;;6.90;4.17;;;6.80;99.90;;;;;;4155713;28;20474;-73
2021/05/07 06:39:37;;;;;;;6.20;4.10;;;6.80;99.90;;;;;;4165341;28;20513;-73
2021/05/07 06:41:38;;;;;;;6.73;4.07;;;6.80;99.90;;;;;;4163721;28;20834;-73
2021/05/07 06:43:39;;;;;;;8.20;4.43;;;6.80;99.90;;;;;;4163587;28;20475;-72
2021/05/07 06:45:41;;;;;;;5.83;4.07;;;6.90;99.90;;;;;;4162923;28;20518;-72
2021/05/07 06:47:43;;;;;;;5.67;3.37;;;6.90;99.90;;;;;;4166121;28;20485;-72
2021/05/07 06:49:44;;;;;;;5.57;3.70;;;6.90;99.90;;;;;;4154899;28;20567;-72
2021/05/07 06:51:46;;;;;;;6.20;3.57;;;6.90;99.90;;;;;;4168517;28;20562;-73
2021/05/07 06:53:47;;;;;;;5.00;3.13;;;6.80;99.90;;;;;;4148549;28;20844;-73
2021/05/07 06:55:48;;;;;;;6.37;3.03;;;6.80;99.90;;;;;;4146756;28;20472;-73
2021/05/07 06:57:50;;;;;;;4.53;3.10;;;6.70;99.90;;;;;;4162745;28;20469;-73
2021/05/07 06:59:52;;;;;;;3.53;2.20;;;6.60;99.90;;;;;;4166258;28;20897;-72
2021/05/07 07:01:55;;;;;;;2.43;1.90;;;6.50;99.90;;;;;;4157701;28;20977;-73
2021/05/07 07:03:56;;;;;;;2.37;1.90;;;6.50;99.90;;;;;;4160150;28;20808;-73
2021/05/07 07:05:57;;;;;;;1.80;1.50;;;6.40;99.90;;;;;;4157181;28;20462;-73
2021/05/07 07:07:58;;;;;;;1.40;1.10;;;6.30;99.90;;;;;;4161722;28;20472;-73
2021/05/07 07:09:59;;;;;;;2.70;0.90;;;6.20;99.90;;;;;;4155740;28;20464;-72
2021/05/07 07:12:00;;;;;;;1.47;1.20;;;6.20;99.90;;;;;;4158887;28;20590;-73
2021/05/07 07:14:01;;;;;;;1.20;1.10;;;6.30;99.90;;;;;;4154725;28;20834;-72
2021/05/07 07:16:03;;;;;;;1.80;1.00;;;6.30;99.90;;;;;;4162051;28;20458;-72
2021/05/07 07:18:05;;;;;;;2.20;1.17;;;6.20;99.90;;;;;;4154303;28;20467;-73
2021/05/07 07:20:08;;;;;;;2.13;1.10;;;6.20;99.90;;;;;;4161013;28;20557;-73
2021/05/07 07:22:09;;;;;;;1.70;1.10;;;6.30;99.90;;;;;;4164489;28;20804;-73
2021/05/07 07:24:11;;;;;;;1.30;1.07;;;6.30;99.90;;;;;;4159414;28;20476;-73
2021/05/07 07:26:12;;;;;;;2.80;1.17;;;6.30;99.90;;;;;;4159715;28;21019;-73
2021/05/07 07:28:17;;;;;;;1.70;1.20;;;6.40;99.90;;;;;;4163750;28;20458;-74
2021/05/07 07:30:19;;;;;;;1.90;1.10;;;6.40;99.90;;;;;;4162924;28;20551;-74
2021/05/07 07:32:21;;;;;;;2.33;1.33;;;6.50;99.90;;;;;;4155055;28;20527;-73
2021/05/07 07:34:23;;;;;;;1.80;1.20;;;6.40;99.90;;;;;;4153319;28;20464;-75
2021/05/07 07:36:24;;;;;;;1.43;1.20;;;6.40;99.90;;;;;;4156534;28;20464;-75
2021/05/07 07:38:26;;;;;;;2.07;1.27;;;6.40;99.90;;;;;;4152938;28;20479;-74
2021/05/07 07:40:27;;;;;;;2.10;1.20;;;6.50;99.90;;;;;;4160625;28;20912;-74
2021/05/07 07:42:28;;;;;;;6.17;1.17;;;6.50;99.90;;;;;;4158231;28;20545;-74
2021/05/07 07:44:29;;;;;;;2.13;1.27;;;6.50;99.90;;;;;;4146367;28;20469;-74
2021/05/07 07:46:31;;;;;;;1.77;1.10;;;6.50;99.90;;;;;;4158832;28;20470;-74
2021/05/07 07:48:32;;;;;;;3.30;1.50;;;6.40;99.90;;;;;;4158260;28;20478;-75
2021/05/07 07:50:34;;;;;;;2.13;1.60;;;6.50;99.90;;;;;;4152457;28;21005;-73
2021/05/07 07:52:37;;;;;;;3.50;1.37;;;6.60;99.90;;;;;;4157781;28;20482;-74
2021/05/07 07:54:38;;;;;;;1.23;1.03;;;6.80;99.90;;;;;;4146448;28;20469;-74
2021/05/07 07:56:40;;;;;;;1.90;1.43;;;6.90;99.90;;;;;;4162370;28;21481;-74
2021/05/07 07:58:41;;;;;;;1.63;1.30;;;6.90;99.90;;;;;;4165826;28;20460;-73
2021/05/07 08:00:43;;;;;;;3.87;1.40;;;6.90;99.90;;;;;;4148260;28;20497;-73
2021/05/07 08:02:45;;;;;;;4.97;1.40;;;7.00;99.90;;;;;;4157553;28;20463;-74
2021/05/07 08:04:47;;;;;;;9.67;1.93;;;7.00;99.90;;;;;;4158999;28;20469;-74
2021/05/07 08:06:49;;;;;;;5.50;1.53;;;7.10;99.90;;;;;;4159560;28;20971;-73
2021/05/07 08:08:50;;;;;;;4.43;1.63;;;7.00;99.90;;;;;;4155911;28;20473;-74
2021/05/07 08:10:51;;;;;;;4.63;1.77;;;6.90;99.90;;;;;;4145739;28;20481;-73
2021/05/07 08:12:53;;;;;;;3.07;1.50;;;6.90;99.90;;;;;;4147412;28;20465;-74
2021/05/07 08:14:54;;;;;;;3.30;1.60;;;6.90;99.90;;;;;;4149155;28;20463;-74
2021/05/07 08:16:55;;;;;;;6.53;1.47;;;6.80;99.90;;;;;;4154561;28;21000;-75
2021/05/07 08:18:56;;;;;;;2.57;1.50;;;6.90;99.90;;;;;;4148136;28;20465;-74
2021/05/07 08:20:58;;;;;;;3.73;1.33;;;6.80;99.90;;;;;;4160571;28;20549;-74
2021/05/07 08:23:01;;;;;;;4.33;1.30;;;6.70;99.90;;;;;;4157982;28;20473;-74
2021/05/07 08:25:03;;;;;;;2.53;1.93;;;6.70;99.90;;;;;;4159174;28;20558;-74
2021/05/07 08:27:04;;;;;;;1.50;1.40;;;6.70;99.90;;;;;;4162340;28;20935;-74
2021/05/07 08:29:06;;;;;;;2.73;1.47;;;6.70;99.90;;;;;;4154967;28;20487;-74
2021/05/07 08:31:07;;;;;;;1.47;1.20;;;6.60;99.90;;;;;;4158882;28;20530;-73
2021/05/07 08:33:09;;;;;;;2.23;1.30;;;6.60;99.90;;;;;;4154967;28;21037;-74
2021/05/07 08:35:11;;;;;;;3.30;1.50;;;6.60;99.90;;;;;;4153808;28;20479;-73
2021/05/07 08:37:13;;;;;;;2.13;1.53;;;6.60;99.90;;;;;;4161440;28;20894;-74
2021/05/07 08:39:16;;;;;;;2.17;1.70;;;6.60;99.90;;;;;;4161180;28;20513;-74
2021/05/07 08:41:17;;;;;;;2.10;1.30;;;6.70;99.90;;;;;;4151797;28;20856;-73
2021/05/07 08:43:19;;;;;;;2.30;1.70;;;6.70;99.90;;;;;;4151498;28;20465;-74
2021/05/07 08:45:20;;;;;;;2.13;1.60;;;6.70;99.90;;;;;;4155556;28;20482;-74
2021/05/07 08:47:22;;;;;;;1.43;1.33;;;6.90;99.90;;;;;;4160786;28;20475;-73
2021/05/07 08:49:24;;;;;;;1.43;1.30;;;6.90;99.90;;;;;;4156705;28;21021;-73
2021/05/07 08:51:26;;;;;;;1.30;1.20;;;7.00;99.90;;;;;;4157270;28;20495;-74
2021/05/07 08:53:29;;;;;;;1.87;1.50;;;7.10;99.90;;;;;;4148384;28;20535;-74
2021/05/07 08:55:31;;;;;;;1.63;1.23;;;7.10;99.90;;;;;;4151699;28;20992;-74
2021/05/07 08:57:33;;;;;;;1.10;0.90;;;7.20;99.90;;;;;;4158153;28;20473;-75
2021/05/07 08:59:34;;;;;;;1.20;1.00;;;7.10;99.90;;;;;;4153631;28;20479;-74
2021/05/07 09:01:43;;;;;;;1.00;0.90;;;7.10;99.90;;;;;;4157222;28;20501;-73
2021/05/07 09:03:46;;;;;;;2.20;1.00;;;7.10;99.80;;;;;;4145767;28;20985;-74
2021/05/07 09:05:47;;;;;;;1.00;1.00;;;7.10;99.20;;;;;;4167321;28;20478;-74
2021/05/07 09:07:54;;;;;;;2.23;1.10;;;7.10;99.40;;;;;;4157004;28;20472;-74
2021/05/07 09:09:59;;;;;;;1.87;1.30;;;7.10;99.80;;;;;;4161283;28;20468;-75
2021/05/07 09:12:03;;;;;;;1.37;1.10;;;7.10;99.90;;;;;;4154620;28;20472;-74
2021/05/07 09:14:05;;;;;;;2.50;1.50;;;7.10;99.70;;;;;;4153875;28;20464;-75
2021/05/07 09:16:08;;;;;;;2.40;1.70;;;7.10;99.80;;;;;;4150591;28;20517;-75
2021/05/07 09:18:10;;;;;;;3.23;2.10;;;7.00;99.90;;;;;;4154220;28;20473;-75
2021/05/07 09:20:14;;;;;;;2.90;1.97;;;7.00;99.90;;;;;;4159084;28;20501;-74
2021/05/07 09:22:23;;;;;;;2.50;1.83;;;7.00;99.90;;;;;;4157791;28;20498;-73
2021/05/07 09:24:31;;;;;;;3.13;1.90;;;7.00;99.90;;;;;;4161922;28;20466;-74
2021/05/07 09:26:32;;;;;;;4.07;2.43;;;7.10;99.90;;;;;;4162074;28;20857;-74
2021/05/07 09:28:34;;;;;;;5.03;2.80;;;7.20;99.90;;;;;;4160954;28;20541;-75
2021/05/07 09:30:36;;;;;;;5.10;3.60;;;7.30;99.60;;;;;;4156989;28;20494;-75
2021/05/07 09:32:37;;;;;;;5.43;3.60;;;7.20;98.00;;;;;;4160630;28;20469;-74
2021/05/07 09:34:39;;;;;;;6.57;3.33;;;7.20;97.70;;;;;;4162089;28;20475;-75
2021/05/07 09:36:40;;;;;;;4.70;3.10;;;7.20;98.00;;;;;;4158036;28;20476;-75
2021/05/07 09:38:41;;;;;;;5.30;3.30;;;7.20;97.40;;;;;;4156902;28;20559;-75
2021/05/07 09:40:43;;;;;;;5.67;3.40;;;7.30;97.30;;;;;;4150466;28;21022;-73
2021/05/07 09:42:45;;;;;;;5.43;3.30;;;7.40;97.40;;;;;;4161392;28;20955;-73
2021/05/07 09:44:47;;;;;;;5.70;3.53;;;7.50;97.50;;;;;;4160363;28;20518;-74
2021/05/07 09:46:49;;;;;;;4.63;3.27;;;7.60;96.80;;;;;;4157444;28;20562;-74
2021/05/07 09:48:50;;;;;;;4.37;3.20;;;7.80;96.90;;;;;;4165535;28;20987;-74
2021/05/07 09:50:56;;;;;;;4.47;3.30;;;8.00;96.90;;;;;;4162424;28;20485;-74
2021/05/07 09:53:08;;;;;;;10.20;4.53;;;8.20;96.50;;;;;;4164282;28;20457;-74
2021/05/07 09:55:10;;;;;;;6.30;3.47;;;8.40;96.00;;;;;;4162814;28;20461;-73
2021/05/07 09:57:11;;;;;;;4.47;3.23;;;8.50;95.30;;;;;;4158380;28;20568;-73
2021/05/07 09:59:14;;;;;;;5.07;2.80;;;8.70;94.30;;;;;;4147494;28;20649;-73
2021/05/07 10:01:16;;;;;;;4.73;2.80;;;8.80;94.00;;;;;;4149817;28;20536;-72
2021/05/07 10:03:17;;;;;;;5.53;2.93;;;8.90;94.20;;;;;;4147533;28;20621;-73
2021/05/07 10:05:19;;;;;;;3.13;2.57;;;9.00;93.00;;;;;;4148602;28;20538;-74
2021/05/07 10:07:20;;;;;;;6.33;3.30;;;9.10;92.50;;;;;;4148993;28;20219;-73
2021/05/07 10:09:23;;;;;;;5.90;3.07;;;9.10;92.20;;;;;;4154474;28;20469;-73
2021/05/07 10:11:25;;;;;;;3.50;2.83;;;9.10;92.00;;;;;;4156366;28;20230;-75
2021/05/07 10:13:29;;;;;;;4.70;2.97;;;9.20;92.50;;;;;;4154912;28;20470;-75
2021/05/07 10:15:34;;;;;;;4.07;2.70;;;9.30;92.60;;;;;;4162794;28;20203;-75
2021/05/07 10:17:36;;;;;;;3.60;2.63;;;9.30;92.50;;;;;;4153772;28;20211;-75
2021/05/07 10:19:42;;;;;;;5.47;3.10;;;9.30;92.40;;;;;;4155397;28;20215;-75
2021/05/07 10:21:45;;;;;;;5.07;3.00;;;9.20;92.30;;;;;;4155282;28;20223;-75
2021/05/07 10:23:51;;;;;;;3.80;2.77;;;9.10;92.30;;;;;;4153626;28;20216;-74
2021/05/07 10:25:57;;;;;;;3.10;2.33;;;8.90;92.10;;;;;;4154357;28;20810;-73
2021/05/07 10:27:58;;;;;;;5.30;2.90;;;8.70;93.70;;;;;;4156208;28;20563;-73
2021/05/07 10:30:00;;;;;;;4.77;2.67;;;8.50;94.80;;;;;;4151593;28;20740;-73
2021/05/07 10:32:02;;;;;;;4.67;2.90;;;8.20;97.00;;;;;;4157597;28;20298;-74
2021/05/07 10:34:06;;;;;;;5.63;3.37;;;8.00;98.40;;;;;;4146824;28;20976;-74
2021/05/07 10:36:07;;;;;;;4.40;2.80;;;8.00;98.20;;;;;;4155560;28;20474;-74
2021/05/07 10:38:10;;;;;;;4.23;2.80;;;7.90;97.90;;;;;;4151391;28;20479;-74
2021/05/07 10:40:23;;;;;;;6.53;3.47;;;7.80;98.20;;;;;;4155636;28;20555;-74
2021/05/07 10:42:24;;;;;;;5.40;3.00;;;7.70;98.80;;;;;;4156382;28;20477;-74